Time;durP1;ratioP1;P1;durP2;ratioP2;P2;SDS_P1;SDS_P2;PMS_P1;PMS_P2;Temp;Humidity;BMP_temperature;BMP_pressure;BME280_temperature;BME280_humidity;BME280_pressure;Samples;Min_cycle;Max_cycle;Signal;HPM_P1;HPM_P2
2023/07/10 00:00:21;;;;;;;6.60;6.03;;;25.70;86.00;;;;;;4971881;28;20465;-63
2023/07/10 00:02:49;;;;;;;6.83;6.07;;;25.70;86.30;;;;;;4973345;28;20701;-63
2023/07/10 00:05:17;;;;;;;6.00;5.50;;;25.70;86.80;;;;;;4977999;28;20459;-63
2023/07/10 00:07:45;;;;;;;7.00;6.30;;;25.70;87.00;;;;;;4970915;28;21009;-64
2023/07/10 00:10:16;;;;;;;8.30;6.47;;;25.60;87.00;;;;;;4971954;28;20463;-64
2023/07/10 00:12:44;;;;;;;5.83;5.33;;;25.60;87.10;;;;;;4973320;28;21026;-63
2023/07/10 00:15:15;;;;;;;5.50;5.00;;;25.70;86.90;;;;;;4973371;28;20537;-64
2023/07/10 00:17:45;;;;;;;6.20;5.60;;;25.70;87.10;;;;;;4972032;28;20458;-63
2023/07/10 00:20:19;;;;;;;6.77;5.90;;;25.70;87.30;;;;;;4971864;28;20819;-63
2023/07/10 00:22:47;;;;;;;5.53;4.90;;;25.60;89.00;;;;;;4971377;28;21006;-63
2023/07/10 00:25:16;;;;;;;5.60;5.10;;;25.70;86.90;;;;;;4971402;28;20473;-63
2023/07/10 00:27:44;;;;;;;5.93;5.37;;;25.70;88.40;;;;;;4969749;28;20529;-63
2023/07/10 00:30:16;;;;;;;7.37;5.20;;;25.70;89.50;;;;;;4972448;28;21021;-63
2023/07/10 00:32:44;;;;;;;5.97;5.57;;;25.60;90.50;;;;;;4974255;28;20481;-63
2023/07/10 00:35:16;;;;;;;5.80;5.30;;;25.50;90.70;;;;;;4971502;28;20465;-63
2023/07/10 00:37:46;;;;;;;6.00;5.40;;;25.50;91.10;;;;;;4972225;28;20991;-63
2023/07/10 00:40:21;;;;;;;5.80;5.30;;;25.40;91.70;;;;;;4972176;28;21097;-63
2023/07/10 00:43:14;;;;;;;6.20;5.60;;;25.30;92.20;;;;;;4971150;28;20469;-63
2023/07/10 00:45:42;;;;;;;7.00;6.30;;;25.20;92.80;;;;;;4972477;28;20451;-63
2023/07/10 00:48:35;;;;;;;6.40;5.90;;;25.10;93.50;;;;;;4970096;28;20579;-63
2023/07/10 00:51:10;;;;;;;6.67;6.07;;;25.00;94.20;;;;;;4971807;28;20468;-63
2023/07/10 00:53:40;;;;;;;7.07;6.10;;;24.90;95.00;;;;;;4972316;28;20665;-63
2023/07/10 00:56:17;;;;;;;6.33;5.80;;;24.80;95.50;;;;;;4972476;28;20512;-63
2023/07/10 00:58:46;;;;;;;7.63;6.17;;;24.70;96.00;;;;;;4966958;28;20460;-63
2023/07/10 01:01:17;;;;;;;7.20;5.77;;;24.70;96.70;;;;;;4968272;28;20491;-63
2023/07/10 01:03:46;;;;;;;6.43;5.83;;;24.60;97.40;;;;;;4971484;28;20839;-63
2023/07/10 01:06:15;;;;;;;6.80;5.87;;;24.50;98.00;;;;;;4972158;28;20465;-63
2023/07/10 01:08:45;;;;;;;6.47;5.97;;;24.50;98.70;;;;;;4971454;28;20982;-63
2023/07/10 01:11:14;;;;;;;7.13;6.43;;;24.50;99.20;;;;;;4970414;28;20474;-63
2023/07/10 01:13:44;;;;;;;6.90;6.30;;;24.60;99.80;;;;;;4972899;28;20490;-63
2023/07/10 01:16:12;;;;;;;5.70;5.20;;;24.50;99.90;;;;;;4971716;28;20548;-63
2023/07/10 01:18:41;;;;;;;6.70;6.10;;;24.50;99.90;;;;;;4975644;28;20455;-63
2023/07/10 01:21:19;;;;;;;6.93;6.10;;;24.50;99.90;;;;;;4971912;28;20521;-63
2023/07/10 01:23:46;;;;;;;6.97;6.27;;;24.50;99.90;;;;;;4973356;28;20482;-63
2023/07/10 01:26:13;;;;;;;6.37;5.60;;;24.50;99.90;;;;;;4970705;28;20620;-63
2023/07/10 01:28:40;;;;;;;6.93;6.00;;;24.50;99.90;;;;;;4969732;28;20492;-63
2023/07/10 01:31:11;;;;;;;7.40;5.73;;;24.50;99.90;;;;;;4971972;28;20541;-63
2023/07/10 01:33:41;;;;;;;6.07;5.57;;;24.50;99.90;;;;;;4970794;28;21002;-63
2023/07/10 01:36:11;;;;;;;8.80;6.17;;;24.50;99.90;;;;;;4974361;28;20454;-64
2023/07/10 01:38:45;;;;;;;9.20;5.93;;;24.40;99.90;;;;;;4970609;28;20969;-63
2023/07/10 01:41:29;;;;;;;9.40;5.70;;;24.40;99.90;;;;;;4972699;28;20553;-63
2023/07/10 01:43:56;;;;;;;6.23;5.63;;;24.40;99.90;;;;;;4971657;28;20525;-63
2023/07/10 01:46:25;;;;;;;8.07;5.80;;;24.30;99.90;;;;;;4970296;28;20849;-63
2023/07/10 01:48:56;;;;;;;8.33;5.97;;;24.30;99.90;;;;;;4976647;28;20544;-63
2023/07/10 01:51:24;;;;;;;6.80;6.07;;;24.20;99.90;;;;;;4975552;28;20461;-63
2023/07/10 01:53:52;;;;;;;7.80;5.80;;;24.20;99.90;;;;;;4975526;28;20991;-63
2023/07/10 01:56:22;;;;;;;6.30;5.80;;;24.20;99.90;;;;;;4975113;28;20544;-63
2023/07/10 01:58:49;;;;;;;6.77;6.17;;;24.20;99.90;;;;;;4977105;28;20475;-63
2023/07/10 02:01:16;;;;;;;7.13;6.40;;;24.10;99.90;;;;;;4970484;28;20545;-63
2023/07/10 02:03:44;;;;;;;7.30;5.97;;;24.10;99.90;;;;;;4972528;28;20477;-63
2023/07/10 02:06:11;;;;;;;7.07;6.37;;;24.20;99.90;;;;;;4974395;28;20468;-63
2023/07/10 02:08:39;;;;;;;6.20;5.70;;;24.20;99.90;;;;;;4978476;28;21017;-62
2023/07/10 02:11:07;;;;;;;9.60;6.13;;;24.20;99.90;;;;;;4975640;28;20464;-63
2023/07/10 02:13:34;;;;;;;7.33;6.43;;;24.20;99.90;;;;;;4974300;28;20557;-62
2023/07/10 02:16:03;;;;;;;7.40;6.00;;;24.10;99.90;;;;;;4973229;28;20482;-63
2023/07/10 02:18:30;;;;;;;8.97;6.20;;;24.00;99.90;;;;;;4975806;28;20462;-63
2023/07/10 02:20:57;;;;;;;7.83;5.73;;;24.00;99.90;;;;;;4977332;28;20962;-63
2023/07/10 02:23:24;;;;;;;6.57;6.00;;;24.00;99.90;;;;;;4977579;28;20478;-62
2023/07/10 02:25:51;;;;;;;6.07;5.57;;;24.00;99.90;;;;;;4973273;28;20486;-63
2023/07/10 02:28:20;;;;;;;6.60;5.40;;;24.00;99.90;;;;;;4973760;28;20490;-64
2023/07/10 02:30:47;;;;;;;7.80;7.10;;;23.90;99.90;;;;;;4975158;28;20567;-62
2023/07/10 02:33:14;;;;;;;6.60;5.80;;;24.00;99.90;;;;;;4973975;28;20481;-62
2023/07/10 02:35:41;;;;;;;8.13;6.27;;;24.00;99.90;;;;;;4973537;28;20620;-62
2023/07/10 02:38:09;;;;;;;6.60;6.00;;;24.00;99.90;;;;;;4974283;28;20484;-62
2023/07/10 02:40:36;;;;;;;9.80;6.43;;;24.00;99.90;;;;;;4973118;28;20510;-62
2023/07/10 02:43:03;;;;;;;6.60;6.00;;;24.00;99.90;;;;;;4973985;28;20478;-63
2023/07/10 02:45:32;;;;;;;6.43;5.93;;;23.90;99.90;;;;;;4974476;28;20887;-63
2023/07/10 02:47:59;;;;;;;7.00;6.30;;;23.90;99.90;;;;;;4973242;28;21426;-62
2023/07/10 02:50:26;;;;;;;8.00;5.63;;;23.80;99.90;;;;;;4971662;28;20463;-63
2023/07/10 02:52:53;;;;;;;8.50;6.30;;;23.80;99.90;;;;;;4973068;28;20478;-64
2023/07/10 02:55:20;;;;;;;7.27;6.57;;;23.80;99.90;;;;;;4979749;28;20539;-63
2023/07/10 02:57:47;;;;;;;7.47;5.90;;;23.80;99.90;;;;;;4974549;28;20554;-63
2023/07/10 03:00:15;;;;;;;6.73;6.10;;;23.70;99.90;;;;;;4974505;28;20631;-63
2023/07/10 03:02:43;;;;;;;6.53;5.70;;;23.70;99.90;;;;;;4975845;28;20513;-63
2023/07/10 03:05:11;;;;;;;6.83;6.13;;;23.80;99.90;;;;;;4979613;28;21212;-63
2023/07/10 03:07:38;;;;;;;6.30;5.80;;;23.80;99.90;;;;;;4973141;28;20474;-62
2023/07/10 03:10:07;;;;;;;8.40;6.07;;;23.80;99.90;;;;;;4973575;28;20543;-62
2023/07/10 03:12:34;;;;;;;7.83;6.67;;;23.90;99.90;;;;;;4972880;28;20487;-62
2023/07/10 03:15:01;;;;;;;7.50;5.80;;;23.90;99.90;;;;;;4972846;28;21057;-62
2023/07/10 03:17:28;;;;;;;7.87;6.03;;;23.90;99.90;;;;;;4971487;28;20801;-63
2023/07/10 03:19:57;;;;;;;7.20;6.20;;;23.90;99.90;;;;;;4972586;28;20551;-63
2023/07/10 03:22:24;;;;;;;6.43;5.70;;;24.00;99.90;;;;;;4969808;28;20521;-62
2023/07/10 03:24:52;;;;;;;7.57;6.13;;;24.00;99.90;;;;;;4975860;28;20462;-62
2023/07/10 03:27:20;;;;;;;6.57;5.97;;;24.00;99.90;;;;;;4972159;28;20528;-66
2023/07/10 03:29:47;;;;;;;6.73;6.03;;;24.00;99.90;;;;;;4974074;28;20454;-65
2023/07/10 03:32:14;;;;;;;7.63;5.70;;;23.90;99.90;;;;;;4973097;28;20451;-65
2023/07/10 03:34:41;;;;;;;7.20;6.30;;;23.80;99.90;;;;;;4973572;28;20513;-64
2023/07/10 03:37:10;;;;;;;7.27;6.17;;;23.70;99.90;;;;;;4972752;28;20482;-64
2023/07/10 03:39:37;;;;;;;6.70;6.10;;;23.70;99.90;;;;;;4972686;28;20917;-66
2023/07/10 03:42:05;;;;;;;6.43;5.83;;;23.70;99.90;;;;;;4973973;28;20527;-66
2023/07/10 03:44:32;;;;;;;6.67;5.97;;;23.80;99.90;;;;;;4973502;28;20538;-66
2023/07/10 03:46:58;;;;;;;9.47;5.90;;;23.80;99.90;;;;;;4973417;28;20970;-66
2023/07/10 03:49:26;;;;;;;7.87;6.37;;;23.90;99.90;;;;;;4971956;28;20495;-67
2023/07/10 03:51:53;;;;;;;6.60;6.00;;;24.00;99.90;;;;;;4972110;28;20459;-66
2023/07/10 03:54:22;;;;;;;6.53;5.60;;;24.00;99.90;;;;;;4974942;28;20505;-66
2023/07/10 03:56:49;;;;;;;6.20;5.70;;;23.90;99.90;;;;;;4972885;28;20921;-66
2023/07/10 03:59:18;;;;;;;6.13;5.53;;;23.90;99.90;;;;;;4974902;28;20486;-66
2023/07/10 04:01:45;;;;;;;6.30;5.37;;;23.90;99.90;;;;;;4974191;28;20465;-66
2023/07/10 04:04:13;;;;;;;6.60;5.50;;;24.00;99.90;;;;;;4973219;28;20481;-66
2023/07/10 04:06:40;;;;;;;8.90;6.10;;;24.20;99.90;;;;;;4975294;28;20815;-65
2023/07/10 04:09:07;;;;;;;6.43;5.83;;;24.00;99.90;;;;;;4975534;28;20500;-66
2023/07/10 04:11:35;;;;;;;6.20;5.20;;;24.00;99.90;;;;;;4970052;28;21007;-66
2023/07/10 04:14:02;;;;;;;7.00;6.27;;;24.00;99.90;;;;;;4974346;28;20477;-65
2023/07/10 04:16:29;;;;;;;6.37;5.73;;;24.00;99.90;;;;;;4972249;28;20547;-65
2023/07/10 04:18:57;;;;;;;6.70;5.93;;;24.00;99.90;;;;;;4977429;28;20668;-66
2023/07/10 04:21:26;;;;;;;6.23;5.73;;;24.10;99.90;;;;;;4972494;28;20459;-65
2023/07/10 04:23:54;;;;;;;6.60;5.80;;;24.20;99.90;;;;;;4971570;28;20479;-66
2023/07/10 04:26:24;;;;;;;6.27;5.67;;;24.30;99.90;;;;;;4971929;28;20458;-66
2023/07/10 04:28:55;;;;;;;8.47;5.60;;;24.30;99.90;;;;;;4972559;28;20490;-67
2023/07/10 04:31:24;;;;;;;7.77;6.27;;;24.40;99.90;;;;;;4975668;28;20683;-67
2023/07/10 04:33:53;;;;;;;6.27;5.43;;;24.40;99.90;;;;;;4973398;28;21553;-65
2023/07/10 04:36:20;;;;;;;6.33;5.73;;;24.40;99.90;;;;;;4974372;28;21021;-66
2023/07/10 04:38:49;;;;;;;6.00;5.40;;;24.40;99.90;;;;;;4973083;28;20496;-66
2023/07/10 04:41:18;;;;;;;9.50;6.00;;;24.50;99.90;;;;;;4973142;28;20876;-66
2023/07/10 04:43:45;;;;;;;7.10;5.70;;;24.40;99.90;;;;;;4972546;28;20477;-67
2023/07/10 04:46:16;;;;;;;6.70;5.40;;;24.50;99.90;;;;;;4968202;28;20488;-66
2023/07/10 04:48:43;;;;;;;6.70;5.80;;;24.50;99.90;;;;;;4971763;28;20485;-66
2023/07/10 04:51:12;;;;;;;7.00;5.33;;;24.50;99.90;;;;;;4976518;28;20977;-65
2023/07/10 04:53:39;;;;;;;6.80;6.20;;;24.50;99.90;;;;;;4973618;28;20478;-66
2023/07/10 04:56:10;;;;;;;6.10;5.50;;;24.40;99.90;;;;;;4972233;28;20465;-65
2023/07/10 04:58:49;;;;;;;5.93;5.43;;;24.40;99.90;;;;;;4971061;28;20483;-67
2023/07/10 05:01:19;;;;;;;6.43;5.60;;;24.40;99.90;;;;;;4967903;28;20461;-66
2023/07/10 05:03:46;;;;;;;6.37;5.77;;;24.40;99.90;;;;;;4975040;28;20496;-66
2023/07/10 05:06:13;;;;;;;7.30;5.73;;;24.50;99.90;;;;;;4973347;28;20494;-66
2023/07/10 05:08:41;;;;;;;7.07;6.07;;;24.50;99.90;;;;;;4968782;28;20581;-66
2023/07/10 05:11:08;;;;;;;7.40;5.33;;;24.60;99.90;;;;;;4970649;28;20477;-67
2023/07/10 05:13:36;;;;;;;5.80;5.30;;;24.60;99.90;;;;;;4970176;28;20489;-67
2023/07/10 05:16:03;;;;;;;8.23;6.70;;;24.60;99.90;;;;;;4971820;28;20467;-67
2023/07/10 05:18:32;;;;;;;7.07;5.93;;;24.70;99.90;;;;;;4965570;28;20597;-67
2023/07/10 05:21:00;;;;;;;6.30;5.70;;;24.70;99.90;;;;;;4970749;28;20453;-67
2023/07/10 05:23:28;;;;;;;6.87;6.17;;;24.80;99.90;;;;;;4972269;28;20478;-68
2023/07/10 05:26:00;;;;;;;7.93;5.73;;;24.90;99.90;;;;;;4970494;28;20573;-67
2023/07/10 05:28:27;;;;;;;6.47;5.83;;;24.90;99.90;;;;;;4960998;28;20493;-68
2023/07/10 05:30:58;;;;;;;7.40;5.77;;;24.90;99.90;;;;;;4962674;28;20863;-67
2023/07/10 05:33:26;;;;;;;7.30;6.60;;;24.90;99.90;;;;;;4971549;28;21040;-67
2023/07/10 05:35:56;;;;;;;6.90;5.70;;;24.90;99.90;;;;;;4967996;28;20469;-67
2023/07/10 05:38:25;;;;;;;8.03;6.33;;;24.90;99.90;;;;;;4968216;28;20470;-64
2023/07/10 05:40:53;;;;;;;8.57;7.03;;;25.00;99.90;;;;;;4969541;28;20463;-64
2023/07/10 05:43:21;;;;;;;6.70;5.93;;;25.10;99.90;;;;;;4971747;28;20574;-64
2023/07/10 05:45:48;;;;;;;7.03;6.20;;;25.30;99.90;;;;;;4963512;28;20457;-65
2023/07/10 05:48:16;;;;;;;5.97;5.43;;;25.40;99.90;;;;;;4973010;28;20485;-65
2023/07/10 05:50:44;;;;;;;8.17;6.07;;;25.40;99.90;;;;;;4969508;28;20449;-64
2023/07/10 05:53:12;;;;;;;7.10;6.40;;;25.40;99.90;;;;;;4969483;28;21013;-64
2023/07/10 05:55:44;;;;;;;7.00;6.40;;;25.50;99.90;;;;;;4972024;28;20975;-64
2023/07/10 05:58:11;;;;;;;6.70;5.90;;;25.60;99.90;;;;;;4975207;28;20818;-64
2023/07/10 06:00:38;;;;;;;7.23;5.73;;;25.60;99.90;;;;;;4973973;28;20465;-64
2023/07/10 06:03:05;;;;;;;6.60;5.97;;;25.60;99.90;;;;;;4972585;28;20482;-65
2023/07/10 06:05:32;;;;;;;6.60;5.93;;;25.60;99.90;;;;;;4968899;28;20453;-65
2023/07/10 06:07:59;;;;;;;7.63;6.10;;;25.80;99.90;;;;;;4968018;28;20459;-64
2023/07/10 06:10:28;;;;;;;8.33;5.83;;;25.90;99.90;;;;;;4962771;28;20917;-65
2023/07/10 06:12:55;;;;;;;7.83;6.23;;;26.00;99.90;;;;;;4964763;28;20576;-65
2023/07/10 06:15:22;;;;;;;6.63;6.00;;;26.10;99.90;;;;;;4971537;28;20541;-64
2023/07/10 06:17:49;;;;;;;6.63;5.77;;;26.20;99.90;;;;;;4970887;28;20553;-64
2023/07/10 06:20:17;;;;;;;7.40;5.87;;;26.30;99.90;;;;;;4968416;28;20466;-64
2023/07/10 06:22:45;;;;;;;6.20;5.60;;;26.40;99.90;;;;;;4969608;28;20994;-64
2023/07/10 06:25:12;;;;;;;6.50;6.00;;;26.60;99.90;;;;;;4970334;28;20463;-64
2023/07/10 06:27:41;;;;;;;6.63;6.00;;;26.70;99.90;;;;;;4960599;28;20490;-64
2023/07/10 06:30:08;;;;;;;6.50;6.00;;;26.90;99.90;;;;;;4968274;28;20646;-64
2023/07/10 06:32:36;;;;;;;7.20;6.50;;;27.10;99.90;;;;;;4965251;28;20577;-64
2023/07/10 06:35:05;;;;;;;8.97;6.50;;;27.20;99.90;;;;;;4966828;28;20549;-64
2023/07/10 06:37:32;;;;;;;8.73;6.30;;;27.40;99.90;;;;;;4975866;28;21033;-64
2023/07/10 06:40:08;;;;;;;7.53;6.70;;;27.50;99.90;;;;;;4972666;28;20462;-64
2023/07/10 06:42:36;;;;;;;8.27;6.50;;;27.70;99.90;;;;;;4970356;28;20480;-65
2023/07/10 06:45:06;;;;;;;9.80;6.80;;;27.70;99.90;;;;;;4971784;28;20488;-64
2023/07/10 06:47:34;;;;;;;7.70;6.90;;;27.80;99.90;;;;;;4970255;28;21199;-65
2023/07/10 06:50:01;;;;;;;7.80;6.27;;;27.70;99.90;;;;;;4969023;28;20488;-65
2023/07/10 06:52:28;;;;;;;8.43;6.90;;;27.70;99.90;;;;;;4975334;28;20486;-65
2023/07/10 06:54:55;;;;;;;9.27;6.80;;;27.60;99.90;;;;;;4963947;28;20537;-64
2023/07/10 06:57:22;;;;;;;6.40;5.83;;;27.50;99.90;;;;;;4970827;28;20447;-64
2023/07/10 06:59:50;;;;;;;6.70;6.10;;;27.50;99.90;;;;;;4973365;28;20589;-64
2023/07/10 07:02:18;;;;;;;7.07;6.47;;;27.50;99.90;;;;;;4967916;28;20491;-64
2023/07/10 07:04:45;;;;;;;5.80;5.40;;;27.60;99.90;;;;;;4971467;28;20459;-65
2023/07/10 07:07:12;;;;;;;5.50;5.00;;;27.70;99.90;;;;;;4973711;28;20463;-63
2023/07/10 07:09:39;;;;;;;6.10;5.50;;;27.80;99.90;;;;;;4969597;28;20572;-64
2023/07/10 07:12:08;;;;;;;7.60;6.23;;;27.70;99.90;;;;;;4963722;28;20486;-64
2023/07/10 07:14:36;;;;;;;5.77;5.27;;;27.80;99.90;;;;;;4970596;28;20501;-63
2023/07/10 07:17:05;;;;;;;6.37;5.53;;;27.90;99.90;;;;;;4971953;28;20966;-64
2023/07/10 07:19:33;;;;;;;6.10;5.47;;;27.80;99.90;;;;;;4964136;28;20466;-65
2023/07/10 07:22:01;;;;;;;5.50;5.00;;;27.70;99.90;;;;;;4968347;28;20585;-65
2023/07/10 07:24:28;;;;;;;5.27;4.77;;;27.60;99.90;;;;;;4968628;28;20537;-64
2023/07/10 07:26:56;;;;;;;5.10;4.60;;;27.60;99.90;;;;;;4968778;28;20459;-64
2023/07/10 07:29:24;;;;;;;5.10;4.60;;;27.50;99.90;;;;;;4967367;28;20548;-63
2023/07/10 07:31:50;;;;;;;5.23;4.73;;;27.30;99.90;;;;;;4964273;28;20486;-64
2023/07/10 07:34:17;;;;;;;4.93;4.53;;;27.40;99.90;;;;;;4962542;28;20468;-64
2023/07/10 07:36:49;;;;;;;4.67;4.30;;;27.40;99.90;;;;;;4968457;28;20460;-64
2023/07/10 07:39:17;;;;;;;5.00;4.60;;;27.60;99.90;;;;;;4966437;28;20462;-65
2023/07/10 07:41:44;;;;;;;5.80;4.70;;;27.60;99.90;;;;;;4961982;28;20458;-65
2023/07/10 07:44:11;;;;;;;4.93;4.50;;;27.80;99.90;;;;;;4967907;28;20451;-65
2023/07/10 07:46:38;;;;;;;4.90;4.50;;;28.00;99.90;;;;;;4967911;28;20580;-65
2023/07/10 07:49:06;;;;;;;4.50;4.10;;;28.10;99.90;;;;;;4973724;28;20566;-63
2023/07/10 07:51:33;;;;;;;4.60;4.20;;;28.10;99.90;;;;;;4970325;28;20458;-65
2023/07/10 07:54:08;;;;;;;4.93;4.47;;;28.10;99.90;;;;;;4969164;28;20489;-64
2023/07/10 07:56:36;;;;;;;5.30;4.90;;;28.10;99.90;;;;;;4971716;28;20545;-64
2023/07/10 07:59:03;;;;;;;4.63;3.90;;;28.00;99.90;;;;;;4976427;28;20525;-64
2023/07/10 08:01:30;;;;;;;4.50;4.10;;;28.10;99.90;;;;;;4966527;28;20459;-64
2023/07/10 08:03:57;;;;;;;5.90;5.20;;;28.30;99.90;;;;;;4973256;28;21029;-64
2023/07/10 08:06:27;;;;;;;4.67;4.30;;;28.40;99.90;;;;;;4970844;28;20461;-64
2023/07/10 08:08:54;;;;;;;4.80;4.40;;;28.50;99.90;;;;;;4970968;28;20540;-64
2023/07/10 08:11:23;;;;;;;5.90;4.97;;;28.50;99.90;;;;;;4966551;28;20481;-64
2023/07/10 08:13:50;;;;;;;5.53;5.03;;;28.60;99.90;;;;;;4964437;28;20474;-63
2023/07/10 08:16:36;;;;;;;6.77;4.50;;;28.70;99.90;;;;;;4972790;28;20496;-64
2023/07/10 08:19:03;;;;;;;5.30;4.80;;;28.60;99.90;;;;;;4971557;28;20495;-65
2023/07/10 08:21:30;;;;;;;5.50;4.50;;;28.40;99.90;;;;;;4971190;28;20474;-65
2023/07/10 08:23:57;;;;;;;5.73;5.20;;;28.50;99.90;;;;;;4968483;28;20574;-65
2023/07/10 08:26:26;;;;;;;5.57;5.07;;;28.50;99.90;;;;;;4970012;28;20459;-65
2023/07/10 08:28:53;;;;;;;6.20;5.60;;;28.50;99.90;;;;;;4972278;28;20534;-65
2023/07/10 08:31:20;;;;;;;5.23;4.77;;;28.40;99.90;;;;;;4966067;28;20460;-64
2023/07/10 08:33:47;;;;;;;6.60;5.23;;;28.50;99.90;;;;;;4969677;28;20845;-64
2023/07/10 08:36:14;;;;;;;5.60;5.20;;;28.70;99.90;;;;;;4968773;28;20450;-64
2023/07/10 08:38:41;;;;;;;5.23;4.83;;;28.70;99.90;;;;;;4969642;28;20457;-64
2023/07/10 08:41:28;;;;;;;5.90;4.63;;;28.90;99.90;;;;;;4963325;28;20498;-63
2023/07/10 08:43:55;;;;;;;5.10;4.70;;;28.90;99.90;;;;;;4970673;28;20517;-63
2023/07/10 08:46:24;;;;;;;6.70;5.33;;;28.90;99.90;;;;;;4965249;28;20566;-67
2023/07/10 08:48:57;;;;;;;6.30;5.73;;;28.90;99.90;;;;;;4967115;28;20473;-64
2023/07/10 08:51:36;;;;;;;5.03;4.63;;;29.00;99.90;;;;;;4971671;28;20558;-63
2023/07/10 08:54:06;;;;;;;5.97;5.47;;;29.00;99.90;;;;;;4967231;28;20453;-65
2023/07/10 08:56:42;;;;;;;5.27;4.77;;;29.10;99.90;;;;;;4968778;28;20562;-64
2023/07/10 08:59:20;;;;;;;7.10;6.40;;;29.40;99.90;;;;;;4974625;28;21166;-64
2023/07/10 09:01:48;;;;;;;6.20;5.63;;;29.50;99.90;;;;;;4971240;28;20462;-64
2023/07/10 09:04:18;;;;;;;6.50;5.90;;;29.70;99.90;;;;;;4968221;28;20576;-64
2023/07/10 09:06:50;;;;;;;8.17;5.37;;;29.50;99.90;;;;;;4974756;28;20450;-64
2023/07/10 09:09:30;;;;;;;5.90;5.13;;;29.10;99.90;;;;;;4974089;28;21014;-62
2023/07/10 09:12:02;;;;;;;5.93;5.43;;;28.90;99.90;;;;;;4971253;28;20889;-62
2023/07/10 09:14:39;;;;;;;6.43;5.37;;;28.90;99.90;;;;;;4970377;28;21014;-64
2023/07/10 09:17:20;;;;;;;6.10;5.60;;;28.80;99.90;;;;;;4967014;28;20458;-63
2023/07/10 09:19:53;;;;;;;5.87;5.07;;;29.20;99.90;;;;;;4966313;28;20466;-63
2023/07/10 09:22:20;;;;;;;6.17;5.67;;;29.40;99.90;;;;;;4970137;28;20474;-63
2023/07/10 09:24:48;;;;;;;5.13;4.70;;;29.70;99.90;;;;;;4964665;28;20490;-64
2023/07/10 09:27:16;;;;;;;7.03;5.30;;;29.70;99.90;;;;;;4970213;28;20471;-64
2023/07/10 09:29:47;;;;;;;6.53;6.00;;;29.50;99.90;;;;;;4971109;28;20498;-64
2023/07/10 09:32:17;;;;;;;6.20;5.60;;;29.30;99.90;;;;;;4974677;28;20486;-61
2023/07/10 09:34:48;;;;;;;5.47;4.97;;;29.50;99.90;;;;;;4972284;28;20548;-63
2023/07/10 09:37:18;;;;;;;8.60;6.20;;;29.70;99.90;;;;;;4970316;28;21045;-62
2023/07/10 09:39:45;;;;;;;6.07;5.47;;;29.80;99.90;;;;;;4967388;28;20450;-63
2023/07/10 09:42:19;;;;;;;6.00;5.60;;;30.00;99.90;;;;;;4972730;28;20494;-63
2023/07/10 09:44:50;;;;;;;5.90;5.40;;;29.70;99.90;;;;;;4973814;28;20788;-63
2023/07/10 09:47:18;;;;;;;6.07;5.67;;;29.80;99.90;;;;;;4968832;28;20465;-64
2023/07/10 09:49:47;;;;;;;7.23;5.90;;;30.00;99.90;;;;;;4967208;28;21008;-63
2023/07/10 09:52:25;;;;;;;5.60;5.00;;;30.20;99.90;;;;;;4969186;28;20477;-65
2023/07/10 09:55:00;;;;;;;6.10;5.70;;;30.10;99.90;;;;;;4967929;28;20526;-64
2023/07/10 09:57:29;;;;;;;6.57;5.80;;;30.10;99.90;;;;;;4968692;28;20558;-78
2023/07/10 09:59:59;;;;;;;5.57;5.07;;;30.20;99.90;;;;;;4972805;28;20458;-75
2023/07/10 10:02:28;;;;;;;6.30;5.80;;;30.30;99.90;;;;;;4968746;28;20470;-78
2023/07/10 10:05:14;;;;;;;6.93;5.53;;;30.50;99.90;;;;;;4976273;28;20609;-79
2023/07/10 10:07:44;;;;;;;5.90;5.30;;;30.80;99.90;;;;;;4968585;28;20955;-80
2023/07/10 10:10:24;;;;;;;6.50;6.00;;;30.90;99.90;;;;;;4970256;28;20505;-80
2023/07/10 10:12:58;;;;;;;6.13;5.63;;;31.20;99.90;;;;;;4974508;28;20622;-78
2023/07/10 10:15:37;;;;;;;5.13;4.70;;;31.30;99.80;;;;;;4974922;28;20463;-80
2023/07/10 10:18:06;;;;;;;6.80;6.10;;;31.40;99.50;;;;;;4966997;28;20515;-81
2023/07/10 10:20:36;;;;;;;6.47;5.50;;;31.60;99.00;;;;;;4977825;28;20485;-77
2023/07/10 10:23:03;;;;;;;5.80;5.40;;;31.60;98.80;;;;;;4969676;28;21185;-75
2023/07/10 10:25:38;;;;;;;5.20;4.80;;;31.80;98.50;;;;;;4967104;28;20484;-70
2023/07/10 10:28:21;;;;;;;6.10;5.60;;;32.10;98.20;;;;;;4970159;28;20453;-66
2023/07/10 10:30:53;;;;;;;6.00;5.50;;;32.30;97.40;;;;;;4970130;28;20534;-66
2023/07/10 10:33:28;;;;;;;6.50;6.00;;;32.50;96.80;;;;;;4972050;28;21017;-66
2023/07/10 10:35:59;;;;;;;6.27;5.63;;;32.60;96.90;;;;;;4972688;28;20573;-66
2023/07/10 10:38:48;;;;;;;6.27;5.77;;;32.70;96.90;;;;;;4981603;28;20452;-66
2023/07/10 10:41:42;;;;;;;6.67;6.03;;;32.30;96.40;;;;;;4975030;28;20458;-65
2023/07/10 10:44:36;;;;;;;6.47;5.83;;;32.20;97.00;;;;;;4969475;28;20466;-66
2023/07/10 10:47:17;;;;;;;6.20;5.60;;;32.40;96.70;;;;;;4973986;28;20450;-68
2023/07/10 10:50:00;;;;;;;9.10;6.70;;;32.30;96.30;;;;;;4977866;28;20492;-66
2023/07/10 10:52:35;;;;;;;6.13;5.47;;;32.70;96.30;;;;;;4973040;28;21038;-66
2023/07/10 10:55:24;;;;;;;6.50;5.90;;;32.80;95.50;;;;;;4975447;28;20506;-65
2023/07/10 10:58:10;;;;;;;6.03;5.47;;;32.80;95.20;;;;;;4968811;28;20459;-66
2023/07/10 11:00:49;;;;;;;6.00;5.50;;;33.30;94.80;;;;;;4973324;28;20867;-65
2023/07/10 11:03:29;;;;;;;5.33;4.83;;;33.00;94.20;;;;;;4972373;28;20566;-65
2023/07/10 11:06:00;;;;;;;6.13;5.03;;;32.80;94.70;;;;;;4967222;28;20558;-65
2023/07/10 11:08:33;;;;;;;5.87;5.40;;;32.80;94.80;;;;;;4971529;28;20590;-66
2023/07/10 11:11:02;;;;;;;7.07;5.83;;;32.90;94.60;;;;;;4976855;28;21305;-65
2023/07/10 11:13:33;;;;;;;7.40;5.30;;;33.00;94.00;;;;;;4971957;28;20481;-65
2023/07/10 11:16:04;;;;;;;6.47;5.60;;;33.00;94.00;;;;;;4969317;28;20455;-65
2023/07/10 11:18:31;;;;;;;6.10;5.50;;;32.50;93.90;;;;;;4971021;28;23999;-66
2023/07/10 11:21:01;;;;;;;5.90;5.30;;;32.80;94.00;;;;;;4976892;28;20823;-66
2023/07/10 11:23:33;;;;;;;7.30;5.80;;;33.30;93.00;;;;;;4975423;28;20486;-65
2023/07/10 11:26:02;;;;;;;6.33;5.40;;;33.20;93.00;;;;;;4971970;28;20451;-65
2023/07/10 11:28:32;;;;;;;5.50;5.00;;;33.30;91.80;;;;;;4972014;28;20459;-66
2023/07/10 11:31:23;;;;;;;6.60;5.13;;;33.30;92.40;;;;;;4972937;28;20997;-66
2023/07/10 11:33:53;;;;;;;6.33;5.90;;;33.40;91.80;;;;;;4973082;28;20543;-65
2023/07/10 11:36:37;;;;;;;6.40;5.40;;;33.80;91.50;;;;;;4971881;28;20470;-65
2023/07/10 11:39:17;;;;;;;6.20;5.70;;;34.30;90.70;;;;;;4974178;28;20465;-67
2023/07/10 11:42:15;;;;;;;6.10;5.60;;;34.30;90.30;;;;;;4972803;28;21507;-66
2023/07/10 11:44:46;;;;;;;6.27;5.07;;;34.30;88.70;;;;;;4973246;28;20465;-64
2023/07/10 11:47:27;;;;;;;5.50;5.00;;;34.10;85.90;;;;;;4977860;28;20453;-65
2023/07/10 11:50:16;;;;;;;5.10;4.70;;;34.40;84.30;;;;;;4975244;28;20545;-65
2023/07/10 11:52:43;;;;;;;5.40;4.90;;;34.00;82.70;;;;;;4973335;28;21216;-65
2023/07/10 11:55:24;;;;;;;5.40;4.97;;;34.00;84.60;;;;;;4970152;28;20450;-65
2023/07/10 11:58:25;;;;;;;5.70;4.87;;;34.30;83.50;;;;;;4976358;28;20457;-65
2023/07/10 12:01:06;;;;;;;5.80;5.30;;;34.40;83.30;;;;;;4968321;28;20541;-66
2023/07/10 12:03:37;;;;;;;6.13;5.20;;;34.40;83.00;;;;;;4970962;28;20480;-65
2023/07/10 12:06:15;;;;;;;6.20;5.10;;;34.40;79.00;;;;;;4973867;28;20465;-65
2023/07/10 12:08:42;;;;;;;6.10;5.50;;;34.70;80.30;;;;;;4974677;28;20459;-65
2023/07/10 12:11:26;;;;;;;4.90;4.60;;;34.90;77.90;;;;;;4971842;28;20501;-65
2023/07/10 12:13:53;;;;;;;6.83;5.10;;;34.90;78.20;;;;;;4970567;28;20461;-65
2023/07/10 12:16:22;;;;;;;5.80;5.30;;;34.90;79.20;;;;;;4967611;28;20572;-65
2023/07/10 12:18:51;;;;;;;5.57;5.03;;;34.50;78.60;;;;;;4968996;28;20459;-65
2023/07/10 12:21:22;;;;;;;5.90;5.30;;;34.80;78.80;;;;;;4972038;28;20554;-65
2023/07/10 12:23:53;;;;;;;5.23;4.83;;;34.60;77.80;;;;;;4973866;28;20553;-64
2023/07/10 12:26:20;;;;;;;6.30;5.60;;;34.70;77.70;;;;;;4977327;28;20456;-65
2023/07/10 12:28:47;;;;;;;6.43;5.27;;;34.90;76.80;;;;;;4972697;28;20461;-65
2023/07/10 12:31:16;;;;;;;5.20;4.80;;;35.50;76.40;;;;;;4975901;28;20897;-65
2023/07/10 12:33:47;;;;;;;4.67;4.23;;;35.70;73.40;;;;;;4968982;28;20451;-65
2023/07/10 12:36:25;;;;;;;5.77;5.27;;;36.20;72.40;;;;;;4968237;28;20534;-64
2023/07/10 12:38:54;;;;;;;5.57;5.17;;;35.90;71.30;;;;;;4976643;28;20480;-65
2023/07/10 12:41:22;;;;;;;5.50;5.10;;;35.60;72.10;;;;;;4969552;28;20513;-65
2023/07/10 12:43:51;;;;;;;5.70;5.10;;;36.10;71.70;;;;;;4968825;28;20446;-64
2023/07/10 12:46:24;;;;;;;5.67;4.97;;;35.80;70.70;;;;;;4970866;28;20467;-64
2023/07/10 12:48:58;;;;;;;5.60;5.20;;;35.60;71.40;;;;;;4973920;28;20823;-64
2023/07/10 12:51:30;;;;;;;5.77;5.27;;;35.60;71.30;;;;;;4968742;28;20581;-65
2023/07/10 12:54:00;;;;;;;5.27;4.83;;;35.70;71.90;;;;;;4971801;28;20451;-65
2023/07/10 12:56:31;;;;;;;5.43;5.03;;;35.50;70.90;;;;;;4965490;28;20989;-65
2023/07/10 12:59:06;;;;;;;6.00;4.50;;;35.60;70.60;;;;;;4974359;28;20496;-64
2023/07/10 13:01:33;;;;;;;7.80;4.90;;;35.50;68.20;;;;;;4970009;28;20459;-65
2023/07/10 13:04:22;;;;;;;5.53;5.03;;;35.80;69.20;;;;;;4967506;28;20486;-65